Flight Information

DEPARTURE
SEATTLE, WA
Elevation:
432
Runways:
16C/34C - 9426x150 - CONC-E
16L/34R - 11901x150 - CONC-E
16R/34L - 8500x150 - CONC-E
ATIS:
118 206-241-6025
Clearance Delivery:
128
Ground:
121.7
Tower:
SEATTLE TOWER
119.9 (RWYS 16C-34C, 16L-34R)
120.95 (RWY 16R-34L)
DESTINATION
,
Elevation:
TPA:
1000 (est.)


6671.2 NM65° True-20° Var44° HDG

Flight Plan:
(click to file on line)

1. Type
2. Aircraft Identification
3. Aircraft Type / Special Equipment
4. True Airspeed
kts
5. Departure Airport
(ICAO code)
6. Arriving Airport
(ICAO code)
7. Cruising Altitude
ft
8. Alternate Airport
(ICAO code)
9. Route of Flight
10. Remarks


00:00:00 Departure ATIS: Destination ATIS:

Clearance Limit:
Route:
Altitude: Expect in minutes
Frequency:
Transponder: (7500 Hijack / 7600 Lost Comms / 7700 Emergency)


KSEA 261353Z 02012KT 10SM CLR 21/09 A3008 RMK AO2 SLP189 T02060089
Time: 2022-06-26T13:53:00Z
1656255312
Winds: 20 @ 12 kts
Visibility: 10.0 sm
Clouds (AGL): CLR
Temperature: 20.6 C
Dew Point: 8.9 C
Pressure: 30.079725 in Hgbr


Notes:

Data extracted from FAA Digital Chart Supplement. Effective: 0901Z Thursday, 27 JAN 2022 to 0900z Thursday, 24 MAR 2022
Current ATIS data is provided courtisy of PilotEdge.